• Join FlightAware (Why Join?)
  • Login
  • US Flag 
01:32AM EDT


 

Airport Tracker/Info


-or-


 

Live Flight TrackerFlight Track Log ✈ N465TP ✈ 26-Aug-2013 ✈ KEKS - KCOD

Flight Track Log - Related Links

Times and Time Zones

All times are in EDT time to prevent confusion due to time zone crossing. See the N465TP flight status page for this flight to view local times or setup timezone preferences in your user account.

Time Position Orientation Groundspeed Altitude Reporting Facility
EDT Latitude Longitude Course Direction KTS MPH feet Rate Location/Type
02:32PM 45.2537 -111.5732 111° Southeast  Level Estimated
02:32PM 45.2592 -111.3069 109° East 182 209 14,600  Level Salt Lake Center
02:33PM 45.2331 -111.4976 111° Southeast  Level Estimated
02:33PM 45.2378 -111.2314 112° Southeast 184 212 16,000  Level Salt Lake Center
02:34PM 45.2123 -111.4221 111° Southeast  Level Estimated
02:34PM 45.2175 -111.1669 114° Southeast 186 214 17,200  Level Salt Lake Center
02:35PM 45.1916 -111.3466 111° Southeast  Level Estimated
02:35PM 45.1919 -111.0886 115° Southeast 190 219 18,600  Level Salt Lake Center
02:36PM 45.1708 -111.2712 111° Southeast  Level Estimated
02:36PM 45.1700 -111.0203 114° Southeast 197 227 19,000  Level Salt Lake Center
02:37PM 45.1389 -110.9217 114° Southeast 233 268 19,000  Level Salt Lake Center
02:38PM 45.1108 -110.8347 115° Southeast 247 284 19,000  Level Salt Lake Center
02:39PM 45.0797 -110.7342 114° Southeast 251 289 19,000  Level Salt Lake Center
02:40PM 45.0514 -110.6469 115° Southeast 253 291 19,000  Level Salt Lake Center
02:41PM 45.0186 -110.5456 115° Southeast 253 291 19,000  Level Salt Lake Center
02:42PM 44.9919 -110.4578 113° Southeast 254 292 19,000  Level Salt Lake Center
02:43PM 44.9633 -110.3708 115° Southeast 256 295 19,000  Level Salt Lake Center
02:44PM 44.9278 -110.2722 117° Southeast 252 290 19,000  Level Salt Lake Center
02:45PM 44.8864 -110.1975 128° Southeast 251 289 19,000  Level Salt Lake Center
02:46PM 44.8464 -110.1039 121° Southeast 251 289 19,000  Level Salt Lake Center
02:47PM 44.8169 -110.0208 117° Southeast 248 285 19,000  Level Salt Lake Center
02:48PM 44.7867 -109.9192 113° Southeast 251 289 19,000  Level Salt Lake Center
02:49PM 44.7592 -109.8258 113° Southeast 254 292 19,000  Level Salt Lake Center
02:50PM 44.7328 -109.7333 112° Southeast 256 295 19,000  Level Salt Lake Center
02:51PM 44.7039 -109.6419 114° Southeast 256 295 19,000  Level Salt Lake Center
02:52PM 44.6769 -109.5511 113° Southeast 254 292 19,000 -360 Level Salt Lake Center
02:53PM 44.6508 -109.4622 112° Southeast 250 288 18,300 -1,260 Descending Salt Lake Center
02:54PM 44.6253 -109.3761 113° Southeast 241 277 16,500 -1,800 Descending Salt Lake Center
02:56PM 44.5936 -109.2878 112° Southeast  Level FlightAware Approximate
03:03PM 44.5167 -109.0167 109° East  Level FlightAware Approximate
03:04PM 44.5202 -109.0238 109° East  Level Estimated
03:05PM 44.5167 -109.0167 109° East  Level FlightAware Approximate
03:06PM 44.5202 -109.0238 109° East  Level Estimated
03:07PM 44.5167 -109.0167 109° East  Level FlightAware Approximate
03:08PM 44.5202 -109.0238 109° East  Level Estimated
03:09PM 44.5167 -109.0167 109° East  Level FlightAware Approximate
03:10PM 44.5202 -109.0238 109° East  Level Estimated
03:11PM 44.5167 -109.0167 109° East  Level FlightAware Approximate
03:12PM 44.5202 -109.0238 109° East  Level Estimated
03:13PM 44.5167 -109.0167 109° East  Level FlightAware Approximate
03:14PM 44.5202 -109.0238 109° East  Level Estimated
03:15PM 44.5167 -109.0167 109° East  Level FlightAware Approximate
03:16PM 44.5202 -109.0238 109° East  Level Estimated